Terminal Aerodrome Forecast
Issued by NWS

Home | Current Version | Previous Version | Text Only | Print | Product List | Glossary On
Versions: 1 2 3 4 5 6 7 8 9 10 11 12 13 14 15 16
554
FTUS43 KDTX 300521
TAFMBS
TAF
KMBS 300521Z 3006/3106 05007KT P6SM SCT060 OVC090
     FM301000 05010KT 6SM -SN BKN040 OVC060
     FM301300 06012G18KT 6SM -RASN SCT025 OVC040
     FM301600 07014G23KT 5SM -RA SCT012 OVC025
     FM301800 06013G23KT 3SM RA SCT008 OVC012
     FM302100 07012KT 3SM -RA BR OVC006
     FM310200 08008KT 1 1/2SM -RA BR OVC003=

USA.gov is the U.S. government's official web portal to all federal, state and local government web resources and services.